Maywood, Indiana
Current Conditions -  °F | °C
As of 8:54 PM on Sunday 21 Dec 2014 (Local Time) from KIND Reporting Station
Broken Clouds Broken Clouds  
Wind Chill: 21°   Ceiling: 25000
Heat Index: 29°   Visibility: 7mi
Dew Point: 24°   Wind: 8mph
Humidity: 82%   Direction: 120°ESE
Pressure: 30.12"   Gusts: NA
Location:  39.7251°N, 86.264°W
Report Text: KIND 220154Z 12007KT 7SM BKN250 M02/M04 A3012 RMK AO2 SLP208 T10171044
Loading
Personal Weather Stations






























Interactive Weather Map New forecast layout! Learn more

10-Day Weather Forecast

Advertisements
Track Severe Weather on mobile